Time;durP1;ratioP1;P1;durP2;ratioP2;P2;SDS_P1;SDS_P2;PMS_P1;PMS_P2;Temp;Humidity;BMP_temperature;BMP_pressure;BME280_temperature;BME280_humidity;BME280_pressure;Samples;Min_cycle;Max_cycle;Signal;HPM_P1;HPM_P2
2020/12/22 00:01:32;;;;;;;17.55;12.52;;;7.40;99.90;;;;;;7056927;27;20896;-66
2020/12/22 00:04:53;;;;;;;18.35;12.48;;;7.40;99.90;;;;;;7048728;27;20510;-65
2020/12/22 00:08:14;;;;;;;18.30;12.13;;;7.30;99.90;;;;;;7039353;27;20836;-66
2020/12/22 00:11:35;;;;;;;18.70;12.90;;;7.40;99.90;;;;;;7036633;27;20790;-66
2020/12/22 00:14:55;;;;;;;18.00;12.50;;;7.40;99.90;;;;;;7042729;27;20403;-66
2020/12/22 00:18:16;;;;;;;18.08;12.07;;;7.30;99.90;;;;;;7056663;27;20403;-69
2020/12/22 00:21:37;;;;;;;17.30;12.48;;;7.50;99.90;;;;;;7062090;27;20412;-67
2020/12/22 00:24:58;;;;;;;17.38;12.05;;;7.50;99.90;;;;;;7039460;27;20399;-68
2020/12/22 00:28:19;;;;;;;18.43;12.80;;;7.50;99.90;;;;;;7040012;27;20391;-65
2020/12/22 00:31:40;;;;;;;18.17;11.98;;;7.40;99.90;;;;;;7031331;27;20920;-65
2020/12/22 00:35:01;;;;;;;18.70;12.55;;;7.50;99.90;;;;;;7024629;27;20391;-66
2020/12/22 00:38:21;;;;;;;18.52;13.20;;;7.50;99.90;;;;;;7055472;27;20394;-65
2020/12/22 00:41:42;;;;;;;20.70;13.43;;;7.50;99.90;;;;;;7029532;27;20485;-66
2020/12/22 00:45:04;;;;;;;18.75;12.77;;;7.50;99.90;;;;;;7056669;27;20386;-65
2020/12/22 00:48:24;;;;;;;19.33;13.00;;;7.50;99.90;;;;;;7035935;27;20398;-67
2020/12/22 00:51:45;;;;;;;16.55;11.50;;;7.40;99.90;;;;;;7043048;27;20402;-64
2020/12/22 00:55:07;;;;;;;17.60;11.20;;;7.40;99.90;;;;;;7035769;27;20886;-65
2020/12/22 00:58:28;;;;;;;18.30;12.00;;;7.40;99.90;;;;;;7037334;27;20453;-65
2020/12/22 01:01:49;;;;;;;17.52;12.20;;;7.50;99.90;;;;;;7032284;27;20889;-65
2020/12/22 01:05:10;;;;;;;18.30;12.45;;;7.50;99.90;;;;;;7053440;27;20523;-66
2020/12/22 01:08:30;;;;;;;19.38;12.02;;;7.50;99.90;;;;;;7035048;27;20397;-66
2020/12/22 01:11:51;;;;;;;19.80;12.10;;;7.50;99.90;;;;;;7026256;27;20884;-68
2020/12/22 01:15:12;;;;;;;18.30;12.10;;;7.50;99.90;;;;;;7041890;27;20401;-68
2020/12/22 01:18:34;;;;;;;17.15;11.18;;;7.50;99.90;;;;;;7029572;27;20492;-68
2020/12/22 01:21:55;;;;;;;18.15;11.90;;;7.50;99.90;;;;;;7075135;27;20393;-68
2020/12/22 01:25:16;;;;;;;17.27;11.10;;;7.60;99.90;;;;;;7060796;27;20733;-68
2020/12/22 01:28:37;;;;;;;16.38;11.27;;;7.60;99.90;;;;;;7030297;27;20941;-67
2020/12/22 01:31:59;;;;;;;14.70;10.50;;;7.60;99.90;;;;;;7070705;27;20400;-66
2020/12/22 01:35:20;;;;;;;14.60;9.93;;;7.60;99.90;;;;;;7033913;27;20390;-66
2020/12/22 01:38:41;;;;;;;15.30;10.20;;;7.50;99.90;;;;;;7053965;27;20401;-65
2020/12/22 01:42:09;;;;;;;15.35;11.32;;;7.60;99.90;;;;;;7032390;28;20482;-68
2020/12/22 01:45:30;;;;;;;15.60;10.50;;;7.60;99.90;;;;;;7037875;27;20403;-68
2020/12/22 01:48:51;;;;;;;14.43;10.60;;;7.70;99.90;;;;;;7037935;27;20916;-68
2020/12/22 01:52:12;;;;;;;14.93;10.38;;;7.70;99.90;;;;;;7042761;27;20390;-68
2020/12/22 01:55:33;;;;;;;15.52;10.30;;;7.70;99.90;;;;;;7049734;27;20911;-67
2020/12/22 01:58:54;;;;;;;13.43;9.60;;;7.70;99.90;;;;;;7062954;27;20447;-66
2020/12/22 02:02:15;;;;;;;15.25;10.07;;;7.70;99.90;;;;;;7036382;27;20406;-65
2020/12/22 02:05:39;;;;;;;15.17;10.30;;;7.70;99.90;;;;;;7047079;27;20464;-66
2020/12/22 02:09:01;;;;;;;14.23;9.77;;;7.70;99.90;;;;;;7062514;27;20869;-66
2020/12/22 02:12:21;;;;;;;13.05;9.60;;;7.80;99.90;;;;;;7041077;27;20393;-66
2020/12/22 02:15:42;;;;;;;14.95;9.93;;;7.90;99.90;;;;;;7038914;27;20447;-65
2020/12/22 02:19:04;;;;;;;13.18;9.35;;;7.90;99.90;;;;;;7045646;27;20440;-67
2020/12/22 02:22:24;;;;;;;12.85;9.25;;;7.90;99.90;;;;;;7047709;27;20904;-68
2020/12/22 02:25:47;;;;;;;12.63;8.60;;;7.90;99.90;;;;;;7035104;27;20400;-68
2020/12/22 02:29:07;;;;;;;13.75;9.43;;;7.90;99.90;;;;;;7029031;27;20417;-69
2020/12/22 02:32:28;;;;;;;13.60;9.50;;;8.00;99.90;;;;;;7038011;27;20402;-68
2020/12/22 02:35:49;;;;;;;13.43;9.10;;;8.00;99.90;;;;;;7036976;27;20904;-68
2020/12/22 02:39:10;;;;;;;12.32;8.80;;;8.00;99.90;;;;;;7047556;27;20466;-65
2020/12/22 02:42:32;;;;;;;13.13;8.60;;;8.00;99.90;;;;;;7036199;27;20451;-67
2020/12/22 02:45:53;;;;;;;13.65;9.05;;;8.10;99.90;;;;;;7030203;27;20498;-66
2020/12/22 02:49:14;;;;;;;14.00;9.10;;;8.10;99.90;;;;;;7044625;27;20406;-68
2020/12/22 02:52:34;;;;;;;14.33;9.73;;;8.10;99.90;;;;;;7051051;27;20382;-69
2020/12/22 02:55:55;;;;;;;12.95;9.10;;;8.10;99.90;;;;;;7053406;27;20520;-68
2020/12/22 02:59:16;;;;;;;12.98;8.60;;;8.10;99.90;;;;;;7025251;27;20441;-69
2020/12/22 03:02:37;;;;;;;12.53;8.90;;;8.10;99.90;;;;;;7038002;27;20489;-67
2020/12/22 03:05:57;;;;;;;13.90;9.70;;;8.20;99.90;;;;;;7043299;27;20473;-68
2020/12/22 03:09:18;;;;;;;12.80;8.70;;;8.10;99.90;;;;;;7045539;27;20438;-68
2020/12/22 03:12:39;;;;;;;12.10;8.20;;;8.10;99.90;;;;;;7032321;27;20402;-68
2020/12/22 03:16:00;;;;;;;13.25;8.75;;;8.10;99.90;;;;;;7051774;27;20398;-65
2020/12/22 03:19:21;;;;;;;11.90;8.70;;;8.20;99.90;;;;;;7044364;27;20534;-65
2020/12/22 03:22:42;;;;;;;13.52;9.30;;;8.20;99.90;;;;;;7044683;27;20453;-68
2020/12/22 03:26:03;;;;;;;12.18;8.27;;;8.20;99.90;;;;;;7036632;27;20414;-68
2020/12/22 03:29:24;;;;;;;12.65;8.48;;;8.20;99.90;;;;;;7040659;27;20452;-67
2020/12/22 03:32:45;;;;;;;13.10;8.50;;;8.30;99.90;;;;;;7040392;27;20398;-69
2020/12/22 03:36:05;;;;;;;12.27;7.90;;;8.30;99.90;;;;;;7039934;27;20451;-66
2020/12/22 03:39:27;;;;;;;10.85;7.38;;;8.30;99.90;;;;;;7033641;27;20394;-68
2020/12/22 03:42:47;;;;;;;11.18;7.32;;;8.30;99.90;;;;;;7024616;27;20410;-68
2020/12/22 03:46:09;;;;;;;10.25;7.10;;;8.30;99.90;;;;;;7023272;27;20512;-66
2020/12/22 03:49:30;;;;;;;10.03;7.10;;;8.40;99.90;;;;;;7039304;27;20493;-69
2020/12/22 03:52:51;;;;;;;9.80;6.70;;;8.40;99.90;;;;;;7044040;27;20761;-69
2020/12/22 03:56:12;;;;;;;9.50;6.80;;;8.30;99.90;;;;;;7073584;27;20386;-68
2020/12/22 03:59:34;;;;;;;9.75;6.50;;;8.40;99.90;;;;;;7058655;27;20485;-67
2020/12/22 04:02:54;;;;;;;9.25;6.47;;;8.50;99.90;;;;;;7039237;27;20442;-66
2020/12/22 04:06:15;;;;;;;8.10;6.20;;;8.50;99.90;;;;;;7044582;27;20405;-67
2020/12/22 04:09:36;;;;;;;9.50;6.10;;;8.60;99.90;;;;;;7058858;27;20407;-67
2020/12/22 04:12:57;;;;;;;8.70;5.60;;;8.60;99.90;;;;;;7038692;27;20389;-69
2020/12/22 04:16:18;;;;;;;8.00;5.40;;;8.70;99.90;;;;;;7042229;27;20878;-69
2020/12/22 04:19:39;;;;;;;7.88;5.28;;;8.70;99.90;;;;;;7063590;27;20436;-66
2020/12/22 04:23:00;;;;;;;7.43;5.15;;;8.60;99.90;;;;;;7028635;27;20391;-69
2020/12/22 04:26:20;;;;;;;7.30;4.88;;;8.70;99.90;;;;;;7045789;27;20408;-70
2020/12/22 04:29:41;;;;;;;7.30;4.70;;;8.70;99.90;;;;;;7027573;27;20408;-70
2020/12/22 04:33:02;;;;;;;7.43;4.65;;;8.80;99.90;;;;;;7037709;27;20394;-69
2020/12/22 04:36:25;;;;;;;6.50;4.55;;;8.90;99.90;;;;;;7025517;27;20533;-69
2020/12/22 04:39:47;;;;;;;5.60;3.80;;;8.90;99.90;;;;;;7034132;27;20414;-69
2020/12/22 04:43:07;;;;;;;6.15;3.80;;;8.90;99.90;;;;;;7048807;27;20400;-68
2020/12/22 04:46:31;;;;;;;5.75;3.50;;;8.90;99.90;;;;;;7031250;27;20433;-68
2020/12/22 04:49:55;;;;;;;5.45;3.60;;;9.00;99.90;;;;;;7060855;27;20405;-68
2020/12/22 04:53:18;;;;;;;5.10;3.53;;;9.00;99.90;;;;;;7030744;27;20391;-68
2020/12/22 04:56:38;;;;;;;5.13;3.60;;;9.10;99.90;;;;;;7025923;27;20395;-68
2020/12/22 05:00:01;;;;;;;5.07;3.50;;;9.10;99.90;;;;;;7027173;27;20382;-70
2020/12/22 05:03:24;;;;;;;4.50;3.10;;;9.10;99.90;;;;;;7017420;27;20443;-68
2020/12/22 05:06:46;;;;;;;5.60;3.10;;;9.20;99.90;;;;;;7034579;27;20408;-69
2020/12/22 05:10:09;;;;;;;5.60;3.10;;;9.30;99.90;;;;;;7026511;27;20403;-69
2020/12/22 05:13:30;;;;;;;4.40;2.97;;;9.30;99.90;;;;;;7042898;27;20401;-68
2020/12/22 05:16:51;;;;;;;4.20;2.90;;;9.40;99.90;;;;;;7029174;27;20401;-68
2020/12/22 05:20:16;;;;;;;4.40;2.70;;;9.40;99.90;;;;;;7051542;27;20441;-69
2020/12/22 05:23:37;;;;;;;4.10;2.70;;;9.50;99.90;;;;;;7034855;27;20389;-68
2020/12/22 05:26:59;;;;;;;3.80;2.40;;;9.50;99.90;;;;;;7036702;27;20543;-69
2020/12/22 05:30:20;;;;;;;4.00;2.50;;;9.60;99.90;;;;;;7062624;27;20432;-68
2020/12/22 05:33:45;;;;;;;4.00;2.42;;;9.70;99.90;;;;;;7030492;27;20396;-67
2020/12/22 05:37:08;;;;;;;5.30;2.40;;;9.70;99.90;;;;;;7040322;27;20396;-70
2020/12/22 05:40:29;;;;;;;4.20;2.20;;;9.80;99.90;;;;;;7049037;27;21427;-66
2020/12/22 05:43:50;;;;;;;4.30;2.50;;;9.90;99.90;;;;;;7032079;28;20399;-69
2020/12/22 05:47:15;;;;;;;3.90;2.30;;;10.00;99.90;;;;;;7023737;27;20402;-70
2020/12/22 05:50:35;;;;;;;3.95;2.40;;;10.10;99.90;;;;;;7045649;27;20410;-69
2020/12/22 05:54:08;;;;;;;5.20;2.50;;;10.10;99.90;;;;;;7037120;28;20487;-67
2020/12/22 05:57:30;;;;;;;4.10;2.65;;;10.20;99.90;;;;;;7032316;27;20848;-67
2020/12/22 06:00:51;;;;;;;4.25;2.67;;;10.30;99.90;;;;;;7034397;27;20421;-67
2020/12/22 06:04:12;;;;;;;4.10;2.20;;;10.40;99.90;;;;;;7054571;27;20426;-66
2020/12/22 06:07:33;;;;;;;3.80;2.40;;;10.50;99.90;;;;;;7058308;27;20395;-67
2020/12/22 06:10:54;;;;;;;4.00;2.60;;;10.60;99.90;;;;;;7027941;27;20414;-65
2020/12/22 06:14:24;;;;;;;4.93;2.83;;;10.60;99.90;;;;;;7038500;27;20400;-65
2020/12/22 06:17:45;;;;;;;4.40;2.90;;;10.70;99.90;;;;;;7019549;27;20400;-68
2020/12/22 06:21:08;;;;;;;4.50;3.00;;;10.80;99.90;;;;;;7037125;27;20700;-65
2020/12/22 06:24:30;;;;;;;4.50;2.87;;;10.90;99.90;;;;;;7053489;27;20490;-66
2020/12/22 06:27:51;;;;;;;5.20;3.50;;;11.00;99.90;;;;;;7058101;27;20414;-66
2020/12/22 06:31:32;;;;;;;5.53;3.80;;;11.10;99.90;;;;;;7033782;27;20498;-66
2020/12/22 06:34:55;;;;;;;5.57;3.80;;;11.30;99.90;;;;;;7046714;27;20405;-66
2020/12/22 06:38:45;;;;;;;5.87;4.00;;;11.30;99.90;;;;;;7024838;27;20743;-68
2020/12/22 06:42:07;;;;;;;6.20;4.00;;;11.40;99.90;;;;;;7047670;27;20455;-68
2020/12/22 06:45:35;;;;;;;6.80;4.20;;;11.50;99.90;;;;;;7051970;27;20395;-69
2020/12/22 06:48:56;;;;;;;7.15;4.90;;;11.60;99.90;;;;;;7036440;27;20442;-69
2020/12/22 06:52:37;;;;;;;6.38;4.60;;;11.60;99.90;;;;;;7053569;27;20399;-69
2020/12/22 06:55:59;;;;;;;6.97;4.70;;;11.70;99.90;;;;;;7047619;27;20434;-70
2020/12/22 06:59:44;;;;;;;6.70;4.80;;;11.80;99.90;;;;;;7027680;27;20411;-66
2020/12/22 07:03:16;;;;;;;7.00;4.80;;;11.90;99.90;;;;;;7034181;27;20729;-67
2020/12/22 07:06:46;;;;;;;6.40;4.50;;;11.90;99.90;;;;;;7040902;27;20476;-67
2020/12/22 07:10:10;;;;;;;5.90;4.20;;;11.90;99.90;;;;;;7035432;27;20495;-68
2020/12/22 07:13:32;;;;;;;6.38;4.30;;;12.00;99.90;;;;;;7042602;27;20392;-70
2020/12/22 07:17:02;;;;;;;6.13;4.50;;;12.00;99.90;;;;;;7034108;27;20485;-65
2020/12/22 07:20:23;;;;;;;5.88;4.30;;;12.10;99.90;;;;;;7031835;27;20434;-66
2020/12/22 07:23:46;;;;;;;5.80;4.00;;;12.10;99.90;;;;;;7037765;27;20418;-70
2020/12/22 07:27:08;;;;;;;6.10;4.20;;;12.20;99.90;;;;;;7040792;27;20391;-70
2020/12/22 07:30:29;;;;;;;5.70;3.80;;;12.20;99.90;;;;;;7045873;27;20830;-65
2020/12/22 07:33:49;;;;;;;5.47;3.90;;;12.30;99.90;;;;;;7044614;27;20919;-68
2020/12/22 07:37:12;;;;;;;5.05;3.70;;;12.30;99.90;;;;;;7016315;27;20388;-67
2020/12/22 07:40:38;;;;;;;5.90;4.00;;;12.30;99.90;;;;;;7036707;27;20808;-68
2020/12/22 07:44:12;;;;;;;6.07;3.90;;;12.30;99.90;;;;;;7033923;27;20892;-67
2020/12/22 07:47:34;;;;;;;6.73;4.20;;;12.40;99.90;;;;;;7047901;27;20447;-68
2020/12/22 07:50:55;;;;;;;5.70;3.90;;;12.40;99.90;;;;;;7042938;27;20448;-65
2020/12/22 07:54:16;;;;;;;6.20;4.20;;;12.40;99.90;;;;;;7023248;27;20404;-65
2020/12/22 07:57:39;;;;;;;6.13;4.20;;;12.30;99.90;;;;;;7061092;27;20485;-66
2020/12/22 08:01:01;;;;;;;6.00;4.28;;;12.40;99.90;;;;;;7040154;27;20409;-68
2020/12/22 08:04:24;;;;;;;6.37;4.30;;;12.40;99.90;;;;;;7038822;27;20441;-66
2020/12/22 08:07:52;;;;;;;6.93;4.68;;;12.40;99.90;;;;;;7043692;27;20394;-68
2020/12/22 08:11:21;;;;;;;7.43;4.55;;;12.40;99.90;;;;;;7038901;27;20417;-67
2020/12/22 08:14:43;;;;;;;6.10;4.50;;;12.40;99.90;;;;;;7066155;27;20436;-68
2020/12/22 08:18:06;;;;;;;5.70;4.03;;;12.50;99.90;;;;;;7056846;27;20401;-68
2020/12/22 08:21:28;;;;;;;5.05;3.90;;;12.40;99.90;;;;;;7033381;27;20398;-68
2020/12/22 08:24:49;;;;;;;7.28;3.80;;;12.40;99.90;;;;;;7043634;27;20929;-68
2020/12/22 08:28:19;;;;;;;5.60;3.70;;;12.50;99.90;;;;;;7041632;27;20488;-69
2020/12/22 08:31:42;;;;;;;5.20;3.55;;;12.50;99.90;;;;;;7049480;27;20896;-66
2020/12/22 08:35:03;;;;;;;5.80;4.00;;;12.60;99.90;;;;;;7027777;27;20868;-67
2020/12/22 08:38:26;;;;;;;5.60;4.00;;;12.60;99.90;;;;;;7035059;27;20398;-74
2020/12/22 08:41:50;;;;;;;4.90;3.47;;;12.60;99.90;;;;;;7036269;27;20399;-70
2020/12/22 08:45:11;;;;;;;5.40;3.50;;;12.70;99.90;;;;;;7058441;27;20414;-69
2020/12/22 08:48:38;;;;;;;5.00;3.47;;;12.70;99.90;;;;;;7052542;27;20415;-70
2020/12/22 08:52:11;;;;;;;4.60;3.35;;;12.70;99.90;;;;;;7031095;27;20430;-72
2020/12/22 08:55:32;;;;;;;4.65;3.00;;;12.70;99.90;;;;;;7053551;27;20390;-72
2020/12/22 08:58:58;;;;;;;4.57;3.10;;;12.70;99.90;;;;;;7059582;27;20398;-69
2020/12/22 09:02:29;;;;;;;4.93;3.00;;;12.60;99.90;;;;;;7030071;27;20407;-69
2020/12/22 09:05:51;;;;;;;4.30;2.90;;;12.70;99.90;;;;;;7027584;27;20397;-68
2020/12/22 09:09:17;;;;;;;3.85;2.65;;;12.70;99.90;;;;;;7033154;27;20407;-68
2020/12/22 09:12:38;;;;;;;4.22;2.78;;;12.70;99.90;;;;;;7024050;27;20386;-72
2020/12/22 09:15:59;;;;;;;4.10;2.75;;;12.80;99.90;;;;;;7032895;27;20410;-67
2020/12/22 09:19:47;;;;;;;4.30;2.87;;;12.80;99.90;;;;;;7027968;27;20751;-70
2020/12/22 09:23:08;;;;;;;5.07;2.90;;;12.90;99.90;;;;;;7050167;27;20401;-68
2020/12/22 09:26:29;;;;;;;4.20;2.67;;;12.90;99.90;;;;;;7028987;27;20716;-67
2020/12/22 09:29:49;;;;;;;5.20;2.60;;;12.90;99.90;;;;;;7033080;27;20406;-68
2020/12/22 09:33:10;;;;;;;4.20;2.40;;;12.80;99.90;;;;;;7040652;27;20901;-67
2020/12/22 09:36:31;;;;;;;4.90;2.55;;;12.80;99.90;;;;;;7053088;27;20743;-69
2020/12/22 09:39:53;;;;;;;4.33;2.33;;;12.80;99.90;;;;;;7073212;27;20434;-69
2020/12/22 09:43:14;;;;;;;4.00;2.30;;;12.70;99.90;;;;;;7046949;27;20761;-69
2020/12/22 09:46:35;;;;;;;4.40;2.50;;;12.70;99.90;;;;;;7033792;27;20890;-69
2020/12/22 09:49:56;;;;;;;4.07;2.50;;;12.70;99.90;;;;;;7040050;27;20415;-69
2020/12/22 09:53:16;;;;;;;3.65;2.25;;;12.70;99.90;;;;;;7039983;27;20469;-69
2020/12/22 09:56:38;;;;;;;4.13;2.35;;;12.80;99.90;;;;;;7072473;27;20803;-69
2020/12/22 09:59:58;;;;;;;3.80;2.40;;;12.80;99.90;;;;;;7029106;27;20410;-69
2020/12/22 10:03:19;;;;;;;4.10;2.40;;;12.80;99.90;;;;;;7029833;27;20438;-69
2020/12/22 10:06:41;;;;;;;4.13;2.60;;;12.90;99.90;;;;;;7026954;27;20404;-69
2020/12/22 10:10:01;;;;;;;4.05;2.55;;;13.00;99.90;;;;;;7030072;27;20772;-69
2020/12/22 10:13:22;;;;;;;4.50;3.10;;;13.00;99.90;;;;;;7036300;27;20441;-71
2020/12/22 10:16:43;;;;;;;4.60;3.13;;;13.00;99.90;;;;;;7068272;27;20411;-71
2020/12/22 10:20:04;;;;;;;4.80;3.10;;;13.00;99.90;;;;;;7022616;27;20411;-71
2020/12/22 10:23:26;;;;;;;6.90;3.90;;;13.00;99.90;;;;;;7033611;27;20413;-70
2020/12/22 10:26:47;;;;;;;4.90;3.10;;;13.10;99.90;;;;;;7061553;27;20414;-70
2020/12/22 10:30:08;;;;;;;5.03;3.27;;;13.00;99.90;;;;;;7058605;27;20402;-71
2020/12/22 10:33:29;;;;;;;4.80;3.20;;;13.10;99.90;;;;;;7031206;27;21119;-71
2020/12/22 10:36:50;;;;;;;5.75;3.20;;;13.10;99.90;;;;;;7055949;27;20408;-73
2020/12/22 10:40:11;;;;;;;5.00;3.15;;;13.10;99.90;;;;;;7075134;27;20478;-71
2020/12/22 10:43:32;;;;;;;4.20;2.80;;;13.00;99.90;;;;;;7032051;27;20398;-71
2020/12/22 10:46:53;;;;;;;4.10;2.80;;;13.10;99.90;;;;;;7033824;27;20457;-71
2020/12/22 10:50:13;;;;;;;4.32;2.70;;;13.10;99.90;;;;;;7037036;27;20400;-71
2020/12/22 10:53:34;;;;;;;4.70;2.93;;;13.00;99.90;;;;;;7041785;27;20404;-72
2020/12/22 10:56:55;;;;;;;5.20;2.90;;;13.00;99.90;;;;;;7043377;27;20397;-70
2020/12/22 11:00:17;;;;;;;5.50;3.20;;;13.00;99.90;;;;;;7059567;27;20401;-71
2020/12/22 11:03:37;;;;;;;4.53;2.90;;;12.90;99.90;;;;;;7039707;27;20447;-71
2020/12/22 11:10:19;;;;;;;4.70;2.92;;;13.00;99.90;;;;;;7050128;27;20417;-68
2020/12/22 11:13:40;;;;;;;6.18;3.08;;;13.10;99.90;;;;;;7036614;27;20726;-71
2020/12/22 11:17:01;;;;;;;4.37;2.90;;;13.20;99.90;;;;;;7038641;27;20397;-70
2020/12/22 11:20:21;;;;;;;4.18;2.97;;;13.20;99.90;;;;;;7059523;27;20436;-70
2020/12/22 11:23:43;;;;;;;4.70;2.70;;;13.30;99.90;;;;;;7024097;27;20456;-70
2020/12/22 11:27:04;;;;;;;4.22;2.90;;;13.10;99.90;;;;;;7084572;27;20475;-71
2020/12/22 11:30:25;;;;;;;5.75;3.60;;;13.00;99.90;;;;;;7028693;27;21001;-69
2020/12/22 11:33:46;;;;;;;5.35;3.20;;;12.90;99.90;;;;;;7039613;27;20415;-69
2020/12/22 11:37:07;;;;;;;3.60;1.80;;;12.80;99.90;;;;;;7037720;27;20392;-70
2020/12/22 11:40:28;;;;;;;3.70;1.70;;;12.80;99.90;;;;;;7043804;27;20894;-69
2020/12/22 11:43:49;;;;;;;4.10;1.70;;;12.70;99.90;;;;;;7048237;27;20443;-71
2020/12/22 11:47:10;;;;;;;3.45;1.73;;;12.60;99.90;;;;;;7042800;27;20423;-66
2020/12/22 11:50:31;;;;;;;3.60;1.80;;;12.40;99.90;;;;;;7029079;27;20402;-68
2020/12/22 11:53:52;;;;;;;4.18;2.30;;;12.40;99.90;;;;;;7045200;27;20389;-68
2020/12/22 11:57:13;;;;;;;4.70;3.00;;;12.30;99.90;;;;;;7045458;27;20394;-68
2020/12/22 12:00:33;;;;;;;4.50;3.20;;;12.10;99.90;;;;;;7019522;27;20434;-68
2020/12/22 12:03:55;;;;;;;6.00;3.45;;;12.00;99.90;;;;;;7020281;27;20433;-68
2020/12/22 12:07:16;;;;;;;5.60;3.67;;;11.80;99.90;;;;;;7033423;27;20883;-68
2020/12/22 12:10:37;;;;;;;6.80;3.70;;;11.70;99.90;;;;;;7018811;27;20512;-69
2020/12/22 12:13:58;;;;;;;6.18;3.80;;;11.40;99.90;;;;;;7036678;27;20394;-68
2020/12/22 12:17:19;;;;;;;6.35;3.90;;;11.40;99.90;;;;;;7027923;27;21232;-69
2020/12/22 12:20:40;;;;;;;7.80;4.00;;;11.30;99.90;;;;;;7024414;27;20401;-68
2020/12/22 12:24:01;;;;;;;6.90;4.00;;;11.10;99.90;;;;;;7038231;27;20426;-66
2020/12/22 12:27:22;;;;;;;7.60;4.30;;;11.10;99.90;;;;;;7017774;27;20851;-66
2020/12/22 12:30:43;;;;;;;7.33;4.30;;;10.90;99.90;;;;;;7037497;27;20397;-68
2020/12/22 12:34:04;;;;;;;7.60;4.00;;;11.00;99.90;;;;;;7069145;27;20413;-66
2020/12/22 12:37:29;;;;;;;5.57;3.90;;;10.80;99.90;;;;;;7032214;27;20407;-68
2020/12/22 12:40:49;;;;;;;6.90;4.20;;;10.70;99.90;;;;;;7054373;27;20484;-68
2020/12/22 12:44:11;;;;;;;6.13;3.80;;;10.80;99.90;;;;;;7040722;27;20768;-67
2020/12/22 12:47:31;;;;;;;7.10;3.90;;;10.80;99.90;;;;;;7048459;27;20406;-67
2020/12/22 12:50:52;;;;;;;7.73;3.70;;;10.80;99.90;;;;;;7059248;27;20423;-66
2020/12/22 12:54:13;;;;;;;7.38;3.10;;;10.80;99.90;;;;;;7046463;27;20416;-68
2020/12/22 12:57:34;;;;;;;6.45;3.00;;;10.70;99.90;;;;;;7050530;27;20383;-69
2020/12/22 13:00:55;;;;;;;6.55;3.30;;;10.70;99.90;;;;;;7042120;27;20410;-71
2020/12/22 13:04:16;;;;;;;5.20;3.00;;;10.70;99.90;;;;;;7040491;27;20430;-69
2020/12/22 13:07:37;;;;;;;5.75;2.90;;;10.60;99.90;;;;;;7059543;27;20399;-70
2020/12/22 13:10:58;;;;;;;5.10;2.80;;;10.50;99.90;;;;;;7044372;27;20408;-69
2020/12/22 13:14:19;;;;;;;5.90;2.80;;;10.50;99.90;;;;;;7035845;27;20398;-68
2020/12/22 13:17:39;;;;;;;5.30;3.28;;;10.50;99.90;;;;;;7049398;27;20415;-70
2020/12/22 13:21:03;;;;;;;4.70;2.40;;;10.40;99.90;;;;;;7030397;27;20976;-71
2020/12/22 13:24:24;;;;;;;5.38;2.20;;;10.40;99.90;;;;;;7018317;27;20421;-66
2020/12/22 13:27:45;;;;;;;5.60;2.50;;;10.50;99.90;;;;;;7013328;28;20403;-67
2020/12/22 13:31:07;;;;;;;4.90;2.40;;;10.60;99.90;;;;;;7020894;28;20410;-66
2020/12/22 13:34:29;;;;;;;5.07;2.20;;;10.50;99.90;;;;;;7023712;27;20449;-67
2020/12/22 13:37:50;;;;;;;4.50;2.40;;;10.50;99.90;;;;;;7041915;27;20402;-66
2020/12/22 13:41:11;;;;;;;4.50;2.10;;;10.50;99.90;;;;;;7037205;28;20965;-69
2020/12/22 13:44:31;;;;;;;4.50;2.22;;;10.50;99.90;;;;;;7028306;27;20807;-71
2020/12/22 13:47:52;;;;;;;6.75;2.20;;;10.60;99.90;;;;;;7029968;27;20900;-69
2020/12/22 13:51:14;;;;;;;5.40;2.10;;;10.50;99.90;;;;;;7029347;27;20455;-69
2020/12/22 13:54:36;;;;;;;5.30;2.10;;;10.30;99.90;;;;;;7036834;27;20482;-69
2020/12/22 13:57:57;;;;;;;5.55;2.22;;;10.30;99.90;;;;;;7060522;27;21412;-70
2020/12/22 14:01:25;;;;;;;5.88;2.40;;;10.40;99.90;;;;;;7041189;27;20447;-70
2020/12/22 14:04:46;;;;;;;4.40;2.30;;;10.40;99.90;;;;;;7034603;27;20478;-68
2020/12/22 14:08:07;;;;;;;5.30;2.60;;;10.30;99.90;;;;;;7028805;27;20383;-67
2020/12/22 14:11:29;;;;;;;7.10;2.45;;;10.20;99.90;;;;;;7019205;27;20412;-72
2020/12/22 14:14:49;;;;;;;5.47;2.65;;;10.20;99.90;;;;;;7034737;27;20427;-70
2020/12/22 14:18:10;;;;;;;4.93;2.53;;;10.10;99.90;;;;;;7020708;27;20930;-69
2020/12/22 14:21:31;;;;;;;8.70;3.10;;;10.10;99.90;;;;;;7030489;27;20402;-69
2020/12/22 14:24:52;;;;;;;5.65;2.58;;;10.10;99.90;;;;;;7042120;27;20457;-70
2020/12/22 14:28:13;;;;;;;4.72;2.67;;;10.10;99.90;;;;;;7022963;27;20410;-70
2020/12/22 14:31:39;;;;;;;6.13;2.80;;;10.00;99.90;;;;;;7046063;27;20422;-70
2020/12/22 14:35:00;;;;;;;6.10;2.80;;;10.00;99.90;;;;;;7040972;27;20410;-70
2020/12/22 14:38:22;;;;;;;5.55;2.60;;;9.90;99.90;;;;;;7038783;27;20425;-70
2020/12/22 14:41:48;;;;;;;4.53;2.20;;;10.00;99.90;;;;;;7032784;27;20575;-69
2020/12/22 14:45:08;;;;;;;4.72;2.40;;;9.80;99.90;;;;;;7041205;27;20413;-68
2020/12/22 14:48:29;;;;;;;5.70;2.50;;;9.80;99.90;;;;;;7043359;27;20653;-68
2020/12/22 14:51:50;;;;;;;7.80;3.53;;;9.80;99.90;;;;;;7051405;27;20408;-68
2020/12/22 14:55:11;;;;;;;6.38;2.60;;;9.70;99.90;;;;;;7032462;27;20405;-68
2020/12/22 14:58:32;;;;;;;5.63;2.60;;;9.70;99.90;;;;;;7068126;27;20387;-68
2020/12/22 15:01:58;;;;;;;7.00;2.60;;;9.70;99.90;;;;;;7050327;27;20411;-68
2020/12/22 15:05:19;;;;;;;4.90;2.47;;;9.60;99.90;;;;;;7043743;27;20410;-68
2020/12/22 15:08:40;;;;;;;6.20;3.27;;;9.60;99.90;;;;;;7037482;27;20397;-68
2020/12/22 15:12:01;;;;;;;4.35;2.33;;;9.60;99.90;;;;;;7051058;27;20412;-67
2020/12/22 15:15:22;;;;;;;4.70;2.20;;;9.60;99.90;;;;;;7049795;27;20477;-68
2020/12/22 15:18:43;;;;;;;5.90;2.40;;;9.60;99.90;;;;;;7043116;27;20721;-67
2020/12/22 15:22:03;;;;;;;5.25;2.60;;;9.60;99.90;;;;;;7038790;27;20878;-67
2020/12/22 15:25:25;;;;;;;6.00;2.55;;;9.50;99.90;;;;;;7035976;27;20463;-68
2020/12/22 15:28:45;;;;;;;5.90;2.40;;;9.50;99.90;;;;;;7041681;27;20408;-68
2020/12/22 15:32:06;;;;;;;6.50;2.77;;;9.40;99.90;;;;;;7069316;27;20420;-68
2020/12/22 15:35:27;;;;;;;6.40;2.42;;;9.40;99.90;;;;;;7025463;27;20474;-68
2020/12/22 15:38:48;;;;;;;6.37;2.50;;;9.30;99.90;;;;;;7030227;27;20427;-68
2020/12/22 15:42:09;;;;;;;6.40;2.90;;;9.30;99.90;;;;;;7036480;27;20501;-67
2020/12/22 15:45:32;;;;;;;8.27;3.90;;;9.20;99.90;;;;;;7045769;27;20403;-67
2020/12/22 15:48:53;;;;;;;7.30;3.40;;;9.20;99.90;;;;;;7027601;27;20794;-68
2020/12/22 15:52:14;;;;;;;6.97;2.78;;;9.30;99.90;;;;;;7039571;27;20401;-69
2020/12/22 15:55:36;;;;;;;9.10;3.17;;;9.30;99.90;;;;;;7050887;27;20395;-67
2020/12/22 15:58:57;;;;;;;8.23;3.10;;;9.30;99.90;;;;;;7035932;27;20394;-68
2020/12/22 16:02:18;;;;;;;10.03;2.93;;;9.20;99.90;;;;;;7033536;27;20959;-68
2020/12/22 16:05:41;;;;;;;7.28;3.00;;;9.10;99.90;;;;;;7064827;27;20401;-69
2020/12/22 16:09:03;;;;;;;6.13;2.80;;;9.00;99.90;;;;;;7045312;27;20445;-68
2020/12/22 16:12:24;;;;;;;7.63;2.78;;;8.80;99.90;;;;;;7055129;27;20836;-68
2020/12/22 16:15:45;;;;;;;8.57;3.30;;;8.70;99.90;;;;;;7026098;27;20418;-66
2020/12/22 16:19:07;;;;;;;7.20;2.80;;;8.60;99.90;;;;;;7054459;27;20411;-66
2020/12/22 16:22:28;;;;;;;6.65;2.80;;;8.50;99.90;;;;;;7058440;27;20393;-62
2020/12/22 16:25:50;;;;;;;6.00;2.60;;;8.40;99.90;;;;;;7069418;27;20884;-65
2020/12/22 16:29:10;;;;;;;7.85;2.85;;;8.40;99.90;;;;;;7059691;27;20410;-66
2020/12/22 16:32:31;;;;;;;7.28;3.00;;;8.40;99.90;;;;;;7053123;27;20454;-67
2020/12/22 16:35:54;;;;;;;10.15;3.50;;;8.30;99.90;;;;;;7049714;27;20386;-66
2020/12/22 16:39:15;;;;;;;5.97;2.90;;;8.20;99.90;;;;;;7027874;27;20442;-67
2020/12/22 16:42:36;;;;;;;10.23;3.78;;;8.10;99.90;;;;;;7029137;27;20784;-66
2020/12/22 16:45:57;;;;;;;8.63;2.87;;;8.10;99.90;;;;;;7042663;27;20969;-65
2020/12/22 16:49:17;;;;;;;10.57;3.30;;;8.00;99.90;;;;;;7046918;27;20407;-66
2020/12/22 16:52:38;;;;;;;8.77;3.23;;;8.00;99.90;;;;;;7043348;27;20398;-66
2020/12/22 16:55:59;;;;;;;8.20;3.40;;;8.00;99.90;;;;;;7051739;27;20395;-66
2020/12/22 16:59:20;;;;;;;7.60;3.40;;;8.00;99.90;;;;;;7072148;27;20410;-67
2020/12/22 17:02:41;;;;;;;8.90;3.90;;;8.00;99.90;;;;;;7048352;27;20413;-71
2020/12/22 17:06:01;;;;;;;7.78;3.10;;;7.90;99.90;;;;;;7056217;27;20399;-65
2020/12/22 17:09:22;;;;;;;9.85;3.20;;;7.90;99.90;;;;;;7021946;27;20414;-68
2020/12/22 17:12:43;;;;;;;9.10;4.17;;;7.80;99.90;;;;;;7037631;27;20428;-68
2020/12/22 17:16:04;;;;;;;10.48;3.50;;;7.90;99.90;;;;;;7040362;27;20395;-71
2020/12/22 17:19:25;;;;;;;7.65;3.35;;;7.80;99.90;;;;;;7041125;27;20406;-70
2020/12/22 17:22:46;;;;;;;8.67;3.70;;;7.90;99.90;;;;;;7045276;27;20400;-66
2020/12/22 17:26:06;;;;;;;10.13;4.10;;;8.00;99.90;;;;;;7070833;27;20405;-70
2020/12/22 17:29:27;;;;;;;11.80;5.50;;;8.00;99.90;;;;;;7040761;27;20417;-69
2020/12/22 17:32:48;;;;;;;13.10;4.45;;;8.00;99.90;;;;;;7047048;27;20404;-69
2020/12/22 17:36:17;;;;;;;10.83;4.90;;;7.90;99.90;;;;;;7026076;28;20398;-69